Terminal Aerodrome Forecast
Issued by NWS

Current Version | Previous Version | Text Only | Print | Product List | Glossary On
Versions: 1 2 3 4 5 6 7 8 9 10 11 12 13 14 15
023
FTUS42 KGSP 231942 AAA
TAFGMU
TAF AMD
KGMU 231942Z 2320/2418 20010G20KT P6SM VCTS SCT050CB
     FM232200 23005KT P6SM VCSH SCT050 BKN250
     FM240200 23004KT P6SM FEW060 SCT250
     FM240400 VRB03KT P6SM FEW250
     FM241500 22005KT P6SM FEW060=

USA.gov is the U.S. government's official web portal to all federal, state and local government web resources and services.